Time;durP1;ratioP1;P1;durP2;ratioP2;P2;SDS_P1;SDS_P2;PMS_P1;PMS_P2;Temp;Humidity;BMP_temperature;BMP_pressure;BME280_temperature;BME280_humidity;BME280_pressure;Samples;Min_cycle;Max_cycle;Signal;HPM_P1;HPM_P2
2022/04/23 04:00:40;;;;;;;16.57;12.70;;;10.30;99.90;;;;;;5869028;23;20590;-74
2022/04/23 04:03:07;;;;;;;15.00;12.17;;;10.20;99.90;;;;;;4986531;28;20452;-74
2022/04/23 04:05:35;;;;;;;13.57;11.57;;;10.20;99.90;;;;;;4987204;28;20635;-74
2022/04/23 04:08:02;;;;;;;15.03;12.60;;;10.10;99.90;;;;;;4986372;28;20559;-74
2022/04/23 04:10:28;;;;;;;14.23;12.00;;;10.00;99.90;;;;;;4984381;28;20540;-74
2022/04/23 04:12:55;;;;;;;13.07;11.23;;;10.00;99.90;;;;;;4967106;28;20456;-74
2022/04/23 04:15:23;;;;;;;15.00;12.00;;;10.00;99.90;;;;;;4967147;28;20471;-74
2022/04/23 04:17:52;;;;;;;15.60;12.43;;;9.90;99.90;;;;;;4966632;28;20819;-74
2022/04/23 04:20:19;;;;;;;14.23;11.80;;;9.90;99.90;;;;;;4967159;28;20920;-74
2022/04/23 04:22:46;;;;;;;15.00;12.30;;;9.90;99.90;;;;;;4965889;28;20830;-74
2022/04/23 04:25:15;;;;;;;14.80;12.03;;;9.90;99.90;;;;;;4967499;28;20456;-74
2022/04/23 04:27:42;;;;;;;14.87;12.10;;;10.00;99.90;;;;;;4966797;28;20465;-74
2022/04/23 04:30:11;;;;;;;15.73;13.10;;;10.00;99.90;;;;;;4967271;28;20806;-74
2022/04/23 04:32:38;;;;;;;14.50;11.63;;;10.00;99.90;;;;;;4965485;28;20538;-74
2022/04/23 04:35:08;;;;;;;13.90;12.27;;;10.00;99.90;;;;;;4967453;28;20441;-74
2022/04/23 04:37:36;;;;;;;16.30;12.97;;;10.00;99.90;;;;;;4966303;28;20457;-74
2022/04/23 04:40:02;;;;;;;17.63;12.87;;;10.00;99.90;;;;;;4966866;28;20591;-74
2022/04/23 04:42:30;;;;;;;13.83;11.90;;;9.90;99.90;;;;;;4967201;28;20853;-74
2022/04/23 04:44:57;;;;;;;17.93;12.40;;;9.90;99.90;;;;;;4967281;28;20449;-74
2022/04/23 04:47:24;;;;;;;13.23;11.50;;;9.90;99.90;;;;;;4969434;28;20975;-73
2022/04/23 04:49:51;;;;;;;14.20;11.20;;;10.00;99.90;;;;;;4969641;28;20463;-73
2022/04/23 04:52:19;;;;;;;13.37;11.23;;;10.00;99.90;;;;;;4967453;28;20474;-74
2022/04/23 04:54:46;;;;;;;15.10;11.93;;;10.00;99.90;;;;;;4967110;28;20506;-74
2022/04/23 04:57:12;;;;;;;12.63;11.23;;;10.00;99.90;;;;;;4966902;28;20567;-74
2022/04/23 04:59:40;;;;;;;15.23;12.00;;;10.00;99.90;;;;;;4966875;28;20471;-74
2022/04/23 05:02:06;;;;;;;12.87;10.83;;;10.00;99.90;;;;;;4966488;28;21202;-73
2022/04/23 05:04:33;;;;;;;13.17;10.90;;;10.10;99.90;;;;;;4967123;28;20479;-74
2022/04/23 05:07:00;;;;;;;13.13;10.80;;;10.10;99.90;;;;;;4966190;28;20968;-73
2022/04/23 05:09:28;;;;;;;17.80;11.60;;;10.10;99.90;;;;;;4966693;28;20468;-73
2022/04/23 05:11:55;;;;;;;14.40;11.37;;;10.10;99.90;;;;;;4966629;28;20478;-73
2022/04/23 05:14:22;;;;;;;14.43;11.67;;;10.10;99.90;;;;;;4965785;28;20921;-67
2022/04/23 05:16:49;;;;;;;14.73;10.93;;;10.10;99.90;;;;;;4966518;28;20456;-67
2022/04/23 05:19:16;;;;;;;13.87;11.07;;;10.20;99.90;;;;;;4966351;28;20511;-67
2022/04/23 05:21:43;;;;;;;14.07;11.20;;;10.20;99.90;;;;;;4966290;28;20508;-67
2022/04/23 05:24:10;;;;;;;13.97;11.20;;;10.30;99.90;;;;;;4963928;28;20453;-74
2022/04/23 05:26:38;;;;;;;13.57;10.87;;;10.30;99.90;;;;;;4957050;28;20484;-74
2022/04/23 05:29:05;;;;;;;14.27;11.50;;;10.40;99.90;;;;;;4967031;28;20441;-73
2022/04/23 05:31:33;;;;;;;14.43;12.00;;;10.40;99.90;;;;;;4966854;28;20476;-74
2022/04/23 05:34:00;;;;;;;13.87;10.93;;;10.40;99.90;;;;;;4966814;28;20464;-74
2022/04/23 05:36:27;;;;;;;14.77;12.30;;;10.50;99.90;;;;;;4965285;28;20467;-74
2022/04/23 05:38:55;;;;;;;15.60;12.67;;;10.50;99.90;;;;;;4966773;28;20447;-74
2022/04/23 05:41:21;;;;;;;14.03;11.30;;;10.50;99.90;;;;;;4966149;28;21344;-74
2022/04/23 05:43:50;;;;;;;13.70;11.70;;;10.60;99.90;;;;;;4966576;28;20460;-74
2022/04/23 05:46:17;;;;;;;15.37;12.10;;;10.60;99.90;;;;;;4966315;28;20552;-74
2022/04/23 05:48:44;;;;;;;14.10;11.00;;;10.70;99.90;;;;;;4966119;28;20461;-74
2022/04/23 05:51:11;;;;;;;15.10;11.93;;;10.70;99.90;;;;;;4966187;28;21005;-73
2022/04/23 05:53:38;;;;;;;14.83;12.17;;;10.70;99.90;;;;;;4966852;28;20464;-74
2022/04/23 05:56:05;;;;;;;12.90;10.97;;;10.80;99.90;;;;;;4966755;28;20456;-74
2022/04/23 05:58:33;;;;;;;12.23;10.37;;;10.80;99.90;;;;;;4965848;28;20460;-74
2022/04/23 06:01:02;;;;;;;12.33;10.20;;;10.90;99.90;;;;;;4965915;28;20510;-74
2022/04/23 06:03:29;;;;;;;10.50;9.37;;;10.90;99.90;;;;;;4966307;28;20551;-74
2022/04/23 06:05:55;;;;;;;9.77;8.73;;;10.90;99.90;;;;;;4966541;28;20467;-73
2022/04/23 06:08:22;;;;;;;11.77;9.93;;;11.00;99.90;;;;;;4965753;28;20461;-74
2022/04/23 06:10:49;;;;;;;11.10;8.60;;;11.00;99.90;;;;;;4966214;28;20476;-74
2022/04/23 06:13:16;;;;;;;8.73;7.77;;;11.10;99.90;;;;;;4966256;28;20818;-74
2022/04/23 06:15:43;;;;;;;9.57;8.00;;;11.10;99.90;;;;;;4966369;28;20467;-74
2022/04/23 06:18:11;;;;;;;9.40;8.37;;;11.10;99.90;;;;;;4965118;28;20552;-74
2022/04/23 06:20:38;;;;;;;7.40;6.67;;;11.10;99.90;;;;;;4966330;28;20512;-73
2022/04/23 06:23:05;;;;;;;8.33;7.43;;;11.20;99.90;;;;;;4966387;28;20492;-72
2022/04/23 06:25:32;;;;;;;7.90;7.10;;;11.20;99.90;;;;;;4967903;28;20460;-71
2022/04/23 06:27:59;;;;;;;6.87;6.17;;;11.30;99.90;;;;;;4968980;28;20939;-73
2022/04/23 06:30:26;;;;;;;8.57;7.33;;;11.30;99.90;;;;;;4968439;28;20559;-74
2022/04/23 06:32:53;;;;;;;6.73;6.03;;;11.30;99.90;;;;;;4968412;28;20460;-74
2022/04/23 06:35:22;;;;;;;7.60;6.10;;;11.40;99.90;;;;;;4968289;28;20456;-73
2022/04/23 06:37:49;;;;;;;6.90;6.20;;;11.30;99.90;;;;;;4965584;28;20465;-73
2022/04/23 06:40:16;;;;;;;6.50;5.90;;;11.30;99.90;;;;;;4968010;28;20871;-74
2022/04/23 06:42:44;;;;;;;7.17;6.00;;;11.30;99.90;;;;;;4968116;28;20847;-73
2022/04/23 06:45:11;;;;;;;7.13;5.70;;;11.30;99.90;;;;;;4968039;28;20885;-74
2022/04/23 06:47:38;;;;;;;6.87;5.70;;;11.30;99.90;;;;;;4966729;28;20470;-74
2022/04/23 06:50:07;;;;;;;7.00;6.30;;;11.40;99.90;;;;;;4968529;28;20551;-74
2022/04/23 06:52:35;;;;;;;6.40;5.60;;;11.40;99.90;;;;;;4969098;28;21392;-74
2022/04/23 06:55:03;;;;;;;7.07;6.23;;;11.40;99.90;;;;;;4969274;28;20456;-73
2022/04/23 06:57:30;;;;;;;6.43;5.73;;;11.30;99.90;;;;;;4968245;28;20466;-73
2022/04/23 06:59:59;;;;;;;5.90;5.30;;;11.40;99.90;;;;;;4969131;28;20453;-73
2022/04/23 07:02:26;;;;;;;6.13;5.57;;;11.40;99.90;;;;;;4968673;28;20555;-73
2022/04/23 07:04:53;;;;;;;5.80;5.10;;;11.50;99.90;;;;;;4969096;28;20453;-74
2022/04/23 07:07:20;;;;;;;5.57;4.97;;;11.50;99.90;;;;;;4968624;28;20473;-74
2022/04/23 07:09:48;;;;;;;7.63;5.13;;;11.60;99.90;;;;;;4962230;28;20456;-74
2022/04/23 07:12:15;;;;;;;10.17;4.93;;;11.70;99.90;;;;;;4956572;28;20480;-74
2022/04/23 07:14:42;;;;;;;7.40;6.00;;;11.70;99.90;;;;;;4959494;28;20547;-74
2022/04/23 07:17:10;;;;;;;6.73;5.57;;;11.80;99.90;;;;;;4950071;28;20454;-74
2022/04/23 07:19:40;;;;;;;6.47;5.80;;;11.90;99.90;;;;;;4949670;28;20446;-74
2022/04/23 07:22:07;;;;;;;6.43;5.33;;;11.90;99.90;;;;;;4949379;28;21001;-74
2022/04/23 07:24:34;;;;;;;5.83;5.23;;;11.90;99.90;;;;;;4949437;28;20548;-74
2022/04/23 07:27:02;;;;;;;7.20;5.43;;;12.00;99.90;;;;;;4948615;28;20457;-74
2022/04/23 07:29:29;;;;;;;6.40;5.17;;;12.00;99.90;;;;;;4949471;28;20460;-74
2022/04/23 07:31:57;;;;;;;6.33;5.73;;;12.10;99.90;;;;;;4949591;28;20482;-74
2022/04/23 07:39:53;;;;;;;6.60;4.77;;;12.20;99.90;;;;;;4949225;29;20819;-74
2022/04/23 07:42:22;;;;;;;6.30;5.70;;;12.20;99.90;;;;;;4948863;28;20592;-74
2022/04/23 07:44:48;;;;;;;6.10;5.50;;;12.30;99.90;;;;;;4948506;28;20551;-74
2022/04/23 07:47:15;;;;;;;6.90;5.87;;;12.30;99.90;;;;;;4948228;28;20712;-74
2022/04/23 07:49:42;;;;;;;6.43;5.83;;;12.40;99.90;;;;;;4948675;28;20494;-74
2022/04/23 07:52:09;;;;;;;6.33;5.73;;;12.40;99.90;;;;;;4948922;28;20481;-74
2022/04/23 07:54:38;;;;;;;6.30;5.30;;;12.50;99.90;;;;;;4948914;28;20855;-74
2022/04/23 07:57:06;;;;;;;5.67;5.13;;;12.50;99.90;;;;;;4948032;28;20461;-74
2022/04/23 07:59:34;;;;;;;5.93;5.10;;;12.50;99.90;;;;;;4948416;28;20470;-74
2022/04/23 08:02:02;;;;;;;7.17;5.90;;;12.50;99.90;;;;;;4954226;28;20492;-74
2022/04/23 08:04:29;;;;;;;6.37;4.93;;;12.50;99.90;;;;;;4966791;28;20460;-73
2022/04/23 08:06:56;;;;;;;5.97;5.37;;;12.50;99.90;;;;;;4954249;28;20453;-74
2022/04/23 08:09:23;;;;;;;6.90;6.20;;;12.70;99.90;;;;;;4947912;28;20550;-74
2022/04/23 08:11:50;;;;;;;6.53;5.80;;;12.70;99.90;;;;;;4959808;28;20480;-74
2022/04/23 08:14:17;;;;;;;6.47;5.73;;;12.80;99.90;;;;;;4967478;28;20967;-74
2022/04/23 08:16:48;;;;;;;6.10;5.50;;;12.80;99.90;;;;;;4967014;28;20455;-74
2022/04/23 08:19:16;;;;;;;5.90;5.30;;;12.90;99.90;;;;;;4967518;28;20460;-74
2022/04/23 08:21:43;;;;;;;5.67;5.17;;;12.90;99.90;;;;;;4967734;28;20492;-74
2022/04/23 08:24:10;;;;;;;6.00;5.40;;;12.90;99.90;;;;;;4967627;28;20579;-74
2022/04/23 08:26:37;;;;;;;6.23;5.53;;;12.90;99.90;;;;;;4966521;28;20544;-74
2022/04/23 08:31:49;;;;;;;5.60;5.10;;;13.00;99.90;;;;;;4967385;28;20451;-74
2022/04/23 08:34:16;;;;;;;6.47;5.87;;;13.10;99.90;;;;;;4966492;28;20568;-74
2022/04/23 08:36:43;;;;;;;6.33;5.50;;;13.10;99.90;;;;;;4966569;28;20548;-74
2022/04/23 08:39:10;;;;;;;5.70;5.20;;;13.10;99.90;;;;;;4967624;28;20464;-74
2022/04/23 08:41:37;;;;;;;6.03;5.43;;;13.10;99.90;;;;;;4965878;28;20606;-74
2022/04/23 08:44:06;;;;;;;6.23;5.50;;;13.20;99.90;;;;;;4967370;28;20843;-74
2022/04/23 08:46:34;;;;;;;6.80;5.80;;;13.10;99.90;;;;;;4966735;28;20493;-73
2022/04/23 08:49:09;;;;;;;6.40;5.73;;;13.20;99.90;;;;;;4967337;28;20478;-73
2022/04/23 08:51:36;;;;;;;7.60;5.53;;;13.20;99.90;;;;;;4966044;28;20822;-74
2022/04/23 08:54:08;;;;;;;5.80;5.20;;;13.20;99.90;;;;;;4966993;28;20988;-73
2022/04/23 08:56:36;;;;;;;6.20;5.60;;;13.20;99.90;;;;;;4966509;28;20429;-73
2022/04/23 08:59:04;;;;;;;6.37;5.20;;;13.10;99.90;;;;;;4967046;28;20571;-74
2022/04/23 09:01:32;;;;;;;6.23;5.63;;;13.10;99.90;;;;;;4966465;28;20612;-73
2022/04/23 09:03:59;;;;;;;6.87;5.50;;;13.10;99.90;;;;;;4967105;28;20461;-74
2022/04/23 09:06:36;;;;;;;5.33;4.83;;;13.00;99.90;;;;;;4966242;28;20456;-74
2022/04/23 09:09:14;;;;;;;5.63;5.13;;;13.00;99.90;;;;;;4966647;28;20435;-74
2022/04/23 09:11:43;;;;;;;5.90;5.30;;;13.00;99.90;;;;;;4966540;28;20996;-74
2022/04/23 09:14:22;;;;;;;6.30;5.70;;;13.00;99.90;;;;;;4966924;28;20467;-74
2022/04/23 09:25:08;;;;;;;5.10;4.60;;;13.00;99.90;;;;;;4966719;28;20447;-74
2022/04/23 09:27:35;;;;;;;5.37;4.87;;;13.10;99.90;;;;;;4965688;28;20960;-73
2022/04/23 09:30:05;;;;;;;8.30;5.40;;;13.20;99.90;;;;;;4966958;28;20519;-73
2022/04/23 09:32:33;;;;;;;5.57;4.83;;;13.30;99.90;;;;;;4966712;28;20504;-73
2022/04/23 09:35:08;;;;;;;5.97;5.30;;;13.30;99.90;;;;;;4966520;28;21580;-73
2022/04/23 09:40:21;;;;;;;6.50;5.30;;;13.40;99.90;;;;;;4966687;28;20416;-74
2022/04/23 09:42:59;;;;;;;5.93;5.33;;;13.40;99.90;;;;;;4966775;28;20501;-74
2022/04/23 09:45:29;;;;;;;6.70;5.40;;;13.40;99.90;;;;;;4966757;28;20460;-73
2022/04/23 09:47:56;;;;;;;6.67;5.97;;;13.50;99.90;;;;;;4965883;28;20488;-73
2022/04/23 09:50:23;;;;;;;6.73;5.00;;;13.50;99.90;;;;;;4966692;28;20467;-73
2022/04/23 09:52:53;;;;;;;5.33;4.83;;;13.50;99.90;;;;;;4966477;28;20461;-73
2022/04/23 09:55:21;;;;;;;6.60;5.57;;;13.50;99.90;;;;;;4966146;28;20551;-73
2022/04/23 09:57:49;;;;;;;7.37;5.20;;;13.60;99.90;;;;;;4965559;28;20461;-73
2022/04/23 10:00:17;;;;;;;6.20;5.60;;;13.60;99.90;;;;;;4967872;28;20828;-74
2022/04/23 10:02:46;;;;;;;6.75;5.97;;;13.60;99.90;;;;;;4969932;28;20489;-74
2022/04/23 10:05:17;;;;;;;9.60;5.70;;;13.70;99.90;;;;;;4970254;28;20583;-73
2022/04/23 10:07:48;;;;;;;8.07;6.40;;;13.70;99.90;;;;;;4969746;28;20443;-74
2022/04/23 10:10:17;;;;;;;8.00;6.70;;;13.70;99.90;;;;;;4970008;28;20456;-74
2022/04/23 10:12:46;;;;;;;7.73;6.93;;;13.70;99.90;;;;;;4970075;28;20452;-74
2022/04/23 10:15:14;;;;;;;9.70;6.60;;;13.70;99.90;;;;;;4970418;28;20453;-74
2022/04/23 10:17:43;;;;;;;8.07;6.80;;;13.60;99.90;;;;;;4969156;28;20563;-74
2022/04/23 10:20:13;;;;;;;8.60;6.80;;;13.70;99.90;;;;;;4969832;28;20467;-74
2022/04/23 10:22:53;;;;;;;8.30;6.70;;;13.70;99.90;;;;;;4969541;28;20465;-74
2022/04/23 10:25:30;;;;;;;7.83;6.40;;;13.80;99.90;;;;;;4970345;28;20225;-71
2022/04/23 10:27:58;;;;;;;7.97;6.57;;;13.80;99.90;;;;;;4969841;28;20528;-68
2022/04/23 10:30:28;;;;;;;7.47;6.53;;;13.80;99.90;;;;;;4970143;28;20547;-69
2022/04/23 10:32:55;;;;;;;8.37;7.10;;;13.80;99.90;;;;;;4969912;28;20453;-69
2022/04/23 10:35:35;;;;;;;7.73;6.67;;;13.80;99.90;;;;;;4969588;28;20579;-68
2022/04/23 10:38:18;;;;;;;9.57;7.27;;;13.70;99.90;;;;;;4969162;28;20566;-69
2022/04/23 10:40:47;;;;;;;7.93;6.17;;;13.70;99.90;;;;;;4955495;28;20480;-70
2022/04/23 10:43:19;;;;;;;9.40;6.93;;;13.70;99.90;;;;;;4950829;28;20497;-68
2022/04/23 10:45:48;;;;;;;9.43;6.73;;;13.70;99.90;;;;;;4950410;29;20453;-70
2022/04/23 10:48:32;;;;;;;8.13;7.33;;;13.70;99.90;;;;;;4949703;28;20457;-74
2022/04/23 10:51:00;;;;;;;9.63;6.67;;;13.80;99.90;;;;;;4948628;28;20489;-71
2022/04/23 10:53:56;;;;;;;8.63;6.90;;;13.80;99.90;;;;;;4950041;28;20517;-74
2022/04/23 10:56:26;;;;;;;12.40;9.20;;;13.90;99.90;;;;;;4949634;28;20464;-73
2022/04/23 10:58:53;;;;;;;12.43;10.57;;;13.90;99.90;;;;;;4950475;28;20457;-74
2022/04/23 11:01:31;;;;;;;38.20;34.33;;;13.90;99.90;;;;;;4949473;28;21086;-73
2022/04/23 11:04:13;;;;;;;73.07;65.53;;;14.00;99.90;;;;;;4952670;28;20516;-75
2022/04/23 11:12:32;;;;;;;16.37;13.10;;;14.20;99.90;;;;;;4947992;28;20536;-70
2022/04/23 11:15:00;;;;;;;11.63;8.47;;;14.30;99.90;;;;;;4954538;28;20456;-74
2022/04/23 11:18:03;;;;;;;8.00;7.20;;;14.40;99.90;;;;;;4968346;28;20563;-74
2022/04/23 11:20:37;;;;;;;9.17;8.10;;;14.50;99.90;;;;;;4968990;28;20441;-74
2022/04/23 11:23:05;;;;;;;7.90;7.10;;;14.50;99.90;;;;;;4968233;28;20524;-74
2022/04/23 11:25:33;;;;;;;10.20;7.93;;;14.60;99.90;;;;;;4966625;28;20453;-74
2022/04/23 11:28:23;;;;;;;9.60;7.83;;;14.60;99.90;;;;;;4968196;28;20542;-74
2022/04/23 11:30:51;;;;;;;8.27;7.23;;;14.70;99.90;;;;;;4968451;28;20846;-73
2022/04/23 11:33:18;;;;;;;9.07;7.67;;;14.70;99.90;;;;;;4968737;28;20564;-75
2022/04/23 11:35:45;;;;;;;9.07;8.17;;;14.60;99.90;;;;;;4967486;28;20497;-73
2022/04/23 11:38:20;;;;;;;8.80;8.00;;;14.60;99.90;;;;;;4967561;28;20964;-73
2022/04/23 11:40:46;;;;;;;9.40;8.07;;;14.60;99.90;;;;;;4968589;28;20476;-73
2022/04/23 11:43:30;;;;;;;8.90;8.00;;;14.60;99.90;;;;;;4968456;28;20610;-73
2022/04/23 11:46:02;;;;;;;8.83;8.00;;;14.60;99.90;;;;;;4968179;28;20943;-73
2022/04/23 11:48:29;;;;;;;8.40;7.50;;;14.70;99.90;;;;;;4967521;28;20461;-74
2022/04/23 11:51:06;;;;;;;8.03;7.27;;;14.70;99.90;;;;;;4968267;28;20468;-73
2022/04/23 11:53:55;;;;;;;9.60;8.53;;;14.80;99.90;;;;;;4966542;28;20509;-73
2022/04/23 11:56:28;;;;;;;9.23;8.27;;;14.80;99.90;;;;;;4967503;28;20460;-73
2022/04/23 11:58:58;;;;;;;10.17;8.47;;;14.90;99.90;;;;;;4968323;28;20436;-73
2022/04/23 12:01:26;;;;;;;12.30;8.77;;;14.90;99.90;;;;;;4967842;28;20499;-73
2022/04/23 12:03:54;;;;;;;9.03;8.10;;;15.00;99.90;;;;;;4966158;28;20813;-73
2022/04/23 12:06:21;;;;;;;9.37;8.10;;;15.00;99.90;;;;;;4963832;28;20449;-74
2022/04/23 12:08:48;;;;;;;11.20;8.97;;;15.10;99.90;;;;;;4948614;28;20488;-74
2022/04/23 12:11:23;;;;;;;9.80;8.53;;;15.10;99.90;;;;;;4953389;28;20465;-74
2022/04/23 12:13:50;;;;;;;12.57;9.23;;;15.10;99.90;;;;;;4964727;28;20455;-74
2022/04/23 12:16:32;;;;;;;9.73;8.60;;;15.10;99.90;;;;;;4960146;28;20456;-73
2022/04/23 12:19:01;;;;;;;9.33;8.47;;;15.20;99.90;;;;;;4966936;28;20499;-73
2022/04/23 12:21:28;;;;;;;9.73;8.67;;;15.20;99.90;;;;;;4966368;28;20491;-73
2022/04/23 12:23:55;;;;;;;10.30;8.67;;;15.30;99.90;;;;;;4966632;28;20496;-73
2022/04/23 12:26:23;;;;;;;10.10;8.50;;;15.40;99.90;;;;;;4965629;28;20457;-73
2022/04/23 12:43:28;;;;;;;10.70;8.57;;;16.00;99.90;;;;;;4950429;28;20635;-72
2022/04/23 12:46:05;;;;;;;9.90;8.83;;;15.90;99.90;;;;;;4966650;28;20544;-72
2022/04/23 12:48:34;;;;;;;16.17;9.20;;;16.00;99.90;;;;;;4965845;28;20437;-73
2022/04/23 12:51:06;;;;;;;9.00;8.10;;;16.00;99.90;;;;;;4966295;28;20483;-72
2022/04/23 12:53:35;;;;;;;10.10;8.60;;;16.00;99.90;;;;;;4965921;28;20445;-73
2022/04/23 12:56:05;;;;;;;9.33;8.40;;;16.10;99.90;;;;;;4966459;28;20448;-72
2022/04/23 12:58:31;;;;;;;11.80;9.60;;;16.20;99.90;;;;;;4966400;28;20539;-72
2022/04/23 13:00:59;;;;;;;14.03;9.43;;;16.20;99.90;;;;;;4966054;28;20603;-72
2022/04/23 13:03:33;;;;;;;10.60;9.40;;;16.10;99.90;;;;;;4966182;28;20498;-72
2022/04/23 13:06:03;;;;;;;11.93;9.63;;;16.20;99.90;;;;;;4966425;28;20452;-72
2022/04/23 13:11:30;;;;;;;12.23;9.47;;;16.20;99.90;;;;;;4966028;28;20511;-72
2022/04/23 13:13:59;;;;;;;11.20;10.00;;;16.20;99.90;;;;;;4963244;28;20449;-72
2022/04/23 13:16:28;;;;;;;10.40;9.30;;;16.20;99.90;;;;;;4945973;28;20493;-72
2022/04/23 13:18:57;;;;;;;13.30;10.67;;;16.20;99.90;;;;;;4953434;28;20882;-72
2022/04/23 13:21:30;;;;;;;12.30;10.27;;;16.30;99.90;;;;;;4953985;28;20981;-72
2022/04/23 13:23:58;;;;;;;12.00;10.70;;;16.30;99.90;;;;;;4955300;28;20493;-73
2022/04/23 13:26:27;;;;;;;11.60;10.40;;;16.20;99.90;;;;;;4946425;28;21091;-72
2022/04/23 13:28:55;;;;;;;12.30;10.33;;;16.30;99.90;;;;;;4949166;28;20504;-73
2022/04/23 13:31:22;;;;;;;12.70;10.60;;;16.30;99.90;;;;;;4951361;28;20457;-72
2022/04/23 13:33:49;;;;;;;13.73;10.80;;;16.30;99.90;;;;;;4946743;28;20464;-75
2022/04/23 13:36:16;;;;;;;13.30;11.90;;;16.40;99.90;;;;;;4949210;28;20467;-72
2022/04/23 13:38:44;;;;;;;12.20;10.90;;;16.40;99.90;;;;;;4950150;28;20492;-72
2022/04/23 13:41:13;;;;;;;14.40;12.20;;;16.40;99.90;;;;;;4950182;28;20564;-71
2022/04/23 13:43:41;;;;;;;13.93;11.80;;;16.40;99.90;;;;;;4950082;28;21021;-72
2022/04/23 13:46:09;;;;;;;12.53;10.90;;;16.50;99.90;;;;;;4950191;28;20552;-71
2022/04/23 13:48:36;;;;;;;13.47;10.70;;;16.40;99.90;;;;;;4949321;28;20872;-72
2022/04/23 13:51:03;;;;;;;15.47;11.90;;;16.40;99.90;;;;;;4950485;28;20857;-72
2022/04/23 13:53:30;;;;;;;15.00;12.27;;;16.50;99.90;;;;;;4950208;28;20488;-73
2022/04/23 13:55:59;;;;;;;12.40;11.07;;;16.60;99.90;;;;;;4950087;28;21238;-73
2022/04/23 13:58:25;;;;;;;13.17;11.03;;;16.60;99.90;;;;;;4949298;28;20450;-72
2022/04/23 14:00:52;;;;;;;13.70;12.13;;;16.60;99.90;;;;;;4950685;28;20580;-73
2022/04/23 14:11:34;;;;;;;15.90;11.90;;;16.70;99.90;;;;;;4951013;29;20516;-73
2022/04/23 14:14:01;;;;;;;15.10;12.60;;;16.70;99.90;;;;;;4950922;28;20488;-71
2022/04/23 14:16:28;;;;;;;14.00;11.87;;;16.70;99.90;;;;;;4950450;28;21020;-73
2022/04/23 14:18:55;;;;;;;16.23;12.33;;;16.70;99.90;;;;;;4953363;28;20440;-73
2022/04/23 14:21:22;;;;;;;14.67;12.10;;;16.80;99.90;;;;;;4951243;28;20568;-75
2022/04/23 14:23:49;;;;;;;13.73;10.50;;;16.70;99.90;;;;;;4950810;28;20504;-74
2022/04/23 14:26:16;;;;;;;12.83;11.47;;;16.80;99.90;;;;;;4952094;28;20506;-74
2022/04/23 14:28:44;;;;;;;14.17;11.60;;;16.80;99.90;;;;;;4951634;28;21042;-73
2022/04/23 14:31:11;;;;;;;14.50;12.20;;;16.80;99.90;;;;;;4950944;28;20501;-72
2022/04/23 14:33:38;;;;;;;13.70;12.30;;;16.80;99.90;;;;;;4950914;28;20828;-73
2022/04/23 14:36:06;;;;;;;18.13;12.47;;;16.80;99.90;;;;;;4950406;28;20560;-73
2022/04/23 14:38:33;;;;;;;14.53;13.03;;;16.80;99.90;;;;;;4949832;28;20461;-73
2022/04/23 14:41:00;;;;;;;15.13;12.97;;;16.80;99.90;;;;;;4949744;28;20536;-73
2022/04/23 14:43:29;;;;;;;12.80;11.03;;;16.80;99.90;;;;;;4948666;28;20500;-72
2022/04/23 14:45:57;;;;;;;16.37;12.10;;;16.80;99.90;;;;;;4949664;28;20989;-72
2022/04/23 14:48:27;;;;;;;18.10;13.00;;;16.80;99.90;;;;;;4949762;28;20508;-72
2022/04/23 14:53:38;;;;;;;16.93;12.10;;;16.80;99.90;;;;;;4950103;29;20432;-72
2022/04/23 14:56:05;;;;;;;17.80;12.30;;;16.70;99.90;;;;;;4952356;28;20480;-71
2022/04/23 14:58:32;;;;;;;13.83;12.00;;;16.80;99.90;;;;;;4949743;28;20481;-71
2022/04/23 15:01:01;;;;;;;11.77;10.57;;;16.70;99.90;;;;;;4949580;28;21013;-75
2022/04/23 15:03:28;;;;;;;13.30;10.87;;;16.70;99.90;;;;;;4949835;28;20512;-73
2022/04/23 15:05:55;;;;;;;11.40;10.20;;;16.60;99.90;;;;;;4949297;28;20461;-72
2022/04/23 15:08:22;;;;;;;14.33;11.10;;;16.60;99.90;;;;;;4949353;28;20454;-71
2022/04/23 15:10:49;;;;;;;13.30;10.23;;;16.60;99.90;;;;;;4949740;28;20508;-72
2022/04/23 15:13:16;;;;;;;14.33;11.57;;;16.50;99.90;;;;;;4950053;28;20453;-73
2022/04/23 15:15:45;;;;;;;14.70;11.93;;;16.50;99.90;;;;;;4949668;28;20552;-71
2022/04/23 15:18:14;;;;;;;16.10;12.10;;;16.40;99.90;;;;;;4949995;28;20467;-72
2022/04/23 15:20:41;;;;;;;16.43;12.60;;;16.40;99.90;;;;;;4951078;28;20568;-72
2022/04/23 15:23:09;;;;;;;14.70;11.37;;;16.40;99.90;;;;;;4950082;28;21010;-73
2022/04/23 15:25:36;;;;;;;14.93;12.33;;;16.40;99.90;;;;;;4950028;28;20491;-75
2022/04/23 15:28:03;;;;;;;20.03;16.67;;;16.40;99.90;;;;;;4948658;28;20485;-72
2022/04/23 15:30:30;;;;;;;18.03;13.53;;;16.40;99.90;;;;;;4949743;28;20457;-72
2022/04/23 15:32:57;;;;;;;13.53;12.00;;;16.30;99.90;;;;;;4949471;28;20895;-72
2022/04/23 15:35:26;;;;;;;17.83;14.10;;;16.40;99.90;;;;;;4949226;28;20548;-72
2022/04/23 15:37:53;;;;;;;17.63;13.43;;;16.30;99.90;;;;;;4948477;28;20518;-72
2022/04/23 15:40:21;;;;;;;24.77;17.47;;;16.30;99.90;;;;;;4949302;28;20454;-72
2022/04/23 15:42:48;;;;;;;14.30;11.70;;;16.30;99.90;;;;;;4949390;28;20563;-73
2022/04/23 15:45:15;;;;;;;15.00;11.60;;;16.30;99.90;;;;;;4949563;28;20544;-72
2022/04/23 15:47:42;;;;;;;16.50;13.87;;;16.20;99.90;;;;;;4948574;28;20819;-72
2022/04/23 15:50:10;;;;;;;16.43;12.90;;;16.20;99.90;;;;;;4949207;28;20981;-72
2022/04/23 15:52:39;;;;;;;15.93;13.73;;;16.20;99.90;;;;;;4947737;28;20499;-72
2022/04/23 15:55:07;;;;;;;16.27;13.20;;;16.20;99.90;;;;;;4948865;28;20497;-73
2022/04/23 15:57:34;;;;;;;16.00;13.10;;;16.20;99.90;;;;;;4946033;28;20529;-72
2022/04/23 16:00:02;;;;;;;17.77;13.60;;;16.30;99.90;;;;;;4948339;28;20477;-73
2022/04/23 16:02:29;;;;;;;18.27;12.57;;;16.20;99.90;;;;;;4948498;28;20493;-72
2022/04/23 16:04:56;;;;;;;18.73;13.77;;;16.30;99.90;;;;;;4948784;28;20647;-71
2022/04/23 16:07:24;;;;;;;17.23;13.87;;;16.20;99.90;;;;;;4948279;28;20454;-72
2022/04/23 16:09:54;;;;;;;15.60;13.10;;;16.20;99.90;;;;;;4948066;28;21064;-73
2022/04/23 16:12:21;;;;;;;16.53;13.50;;;16.20;99.90;;;;;;4948745;28;20536;-73
2022/04/23 16:14:48;;;;;;;59.53;42.00;;;16.20;99.90;;;;;;4948580;28;20907;-72
2022/04/23 16:17:15;;;;;;;29.00;22.13;;;16.20;99.90;;;;;;4947978;28;20962;-73
2022/04/23 16:19:42;;;;;;;21.17;16.33;;;16.20;99.90;;;;;;4948348;28;20941;-74
2022/04/23 16:22:13;;;;;;;18.80;14.37;;;16.10;99.90;;;;;;4947924;28;20485;-72
2022/04/23 16:24:40;;;;;;;31.67;25.20;;;16.10;99.90;;;;;;4948605;28;20536;-73
2022/04/23 16:27:08;;;;;;;16.77;14.00;;;16.10;99.90;;;;;;4947644;28;20540;-73
2022/04/23 16:29:35;;;;;;;42.23;34.33;;;16.10;99.90;;;;;;4948089;28;20441;-73
2022/04/23 16:32:02;;;;;;;18.90;15.03;;;16.10;99.90;;;;;;4948351;28;20482;-72
2022/04/23 16:34:36;;;;;;;14.93;13.30;;;16.10;99.90;;;;;;4948683;28;20456;-73
2022/04/23 16:48:03;;;;;;;20.03;15.87;;;16.10;99.90;;;;;;4947495;29;20445;-68
2022/04/23 16:50:36;;;;;;;21.93;18.70;;;16.00;99.90;;;;;;4948306;28;20500;-68
2022/04/23 16:53:03;;;;;;;27.53;23.10;;;16.00;99.90;;;;;;4948050;28;20493;-67
2022/04/23 16:55:30;;;;;;;32.33;25.87;;;16.10;99.90;;;;;;4947672;28;21055;-68
2022/04/23 16:57:59;;;;;;;18.37;14.10;;;16.10;99.90;;;;;;4947462;28;20457;-70
2022/04/23 17:00:26;;;;;;;19.97;15.80;;;16.10;99.90;;;;;;4947687;28;20545;-73
2022/04/23 17:02:52;;;;;;;22.40;18.23;;;16.10;99.90;;;;;;4947848;28;20462;-73
2022/04/23 17:05:20;;;;;;;15.43;12.83;;;16.10;99.90;;;;;;4948077;28;21068;-73
2022/04/23 17:07:47;;;;;;;16.07;13.70;;;16.10;99.90;;;;;;4947562;28;20470;-73
2022/04/23 17:10:14;;;;;;;17.17;14.03;;;16.10;99.90;;;;;;4948205;28;20457;-72
2022/04/23 17:12:41;;;;;;;36.73;27.53;;;16.10;99.90;;;;;;4948049;28;20465;-73
2022/04/23 17:15:10;;;;;;;18.60;14.23;;;16.10;99.90;;;;;;4948021;28;20500;-74
2022/04/23 17:17:37;;;;;;;20.13;16.70;;;16.10;99.90;;;;;;4947412;28;20483;-72
2022/04/23 17:20:05;;;;;;;15.50;13.80;;;16.10;99.90;;;;;;4948179;28;21375;-73
2022/04/23 17:22:32;;;;;;;25.60;19.60;;;16.10;99.90;;;;;;4947713;28;20488;-74
2022/04/23 17:24:59;;;;;;;26.60;19.37;;;16.10;99.90;;;;;;4947874;28;20836;-74
2022/04/23 17:27:26;;;;;;;17.07;13.90;;;16.10;99.90;;;;;;4947197;29;20467;-72
2022/04/23 17:29:53;;;;;;;20.53;16.63;;;16.10;99.90;;;;;;4948293;28;20902;-74
2022/04/23 17:32:21;;;;;;;16.10;12.50;;;16.10;99.90;;;;;;4947927;28;20556;-72
2022/04/23 17:34:48;;;;;;;15.33;13.07;;;16.10;99.90;;;;;;4947809;28;20540;-74
2022/04/23 17:37:15;;;;;;;17.97;13.70;;;16.10;99.90;;;;;;4946838;28;20491;-72
2022/04/23 17:39:42;;;;;;;17.97;13.47;;;16.10;99.90;;;;;;4948234;28;20600;-74
2022/04/23 17:42:08;;;;;;;16.30;13.40;;;16.00;99.90;;;;;;4946268;28;20545;-74
2022/04/23 17:44:35;;;;;;;14.77;12.47;;;16.00;99.90;;;;;;4946683;28;20508;-74
2022/04/23 17:47:02;;;;;;;16.57;13.30;;;16.00;99.90;;;;;;4946157;28;20556;-73